Terminal Aerodrome Forecast
Issued by NWS

Home | Current Version | Previous Version | Text Only | Print | Product List | Glossary On
Versions: 1 2 3 4 5 6 7 8 9 10 11 12 13
724
FTUS42 TJSJ 270913 AAA
TAFJSJ
TAF AMD
TJSJ 270913Z 2709/2806 07010KT P6SM VCSH SCT025 SCT040
      TEMPO 2709/2711 5SM -SHRA SCT020 BKN040
     FM271300 08013KT P6SM SCT025
     FM272300 08010KT P6SM FEW025 SCT040=

USA.gov is the U.S. government's official web portal to all federal, state and local government web resources and services.